sensor_id;sensor_type;location;lat;lon;timestamp;P1;durP1;ratioP1;P2;durP2;ratioP2
47337;SDS011;33069;51.970;5.892;2023-08-30T00:02:26;19.80;;;16.50;;
47337;SDS011;33069;51.970;5.892;2023-08-30T00:05:12;18.38;;;13.02;;
47337;SDS011;33069;51.970;5.892;2023-08-30T00:07:59;19.17;;;15.13;;
47337;SDS011;33069;51.970;5.892;2023-08-30T00:10:45;17.02;;;14.45;;
47337;SDS011;33069;51.970;5.892;2023-08-30T00:13:31;21.20;;;15.02;;
47337;SDS011;33069;51.970;5.892;2023-08-30T00:16:18;18.13;;;14.15;;
47337;SDS011;33069;51.970;5.892;2023-08-30T00:19:04;16.95;;;15.15;;
47337;SDS011;33069;51.970;5.892;2023-08-30T00:21:58;16.33;;;14.07;;
47337;SDS011;33069;51.970;5.892;2023-08-30T00:24:44;17.55;;;14.18;;
47337;SDS011;33069;51.970;5.892;2023-08-30T00:27:30;14.93;;;12.93;;
47337;SDS011;33069;51.970;5.892;2023-08-30T00:30:16;16.02;;;14.32;;
47337;SDS011;33069;51.970;5.892;2023-08-30T00:33:02;19.58;;;14.18;;
47337;SDS011;33069;51.970;5.892;2023-08-30T00:35:58;19.02;;;14.98;;
47337;SDS011;33069;51.970;5.892;2023-08-30T00:38:46;19.63;;;14.35;;
47337;SDS011;33069;51.970;5.892;2023-08-30T00:41:32;15.40;;;13.70;;
47337;SDS011;33069;51.970;5.892;2023-08-30T00:44:18;19.95;;;14.27;;
47337;SDS011;33069;51.970;5.892;2023-08-30T00:47:03;20.52;;;16.55;;
47337;SDS011;33069;51.970;5.892;2023-08-30T00:49:49;19.50;;;16.13;;
47337;SDS011;33069;51.970;5.892;2023-08-30T00:52:36;20.63;;;15.48;;
47337;SDS011;33069;51.970;5.892;2023-08-30T00:55:22;20.05;;;15.10;;
47337;SDS011;33069;51.970;5.892;2023-08-30T00:58:08;20.38;;;15.13;;
47337;SDS011;33069;51.970;5.892;2023-08-30T01:00:56;23.58;;;16.20;;
47337;SDS011;33069;51.970;5.892;2023-08-30T01:03:42;16.17;;;14.48;;
47337;SDS011;33069;51.970;5.892;2023-08-30T01:06:28;17.55;;;15.20;;
47337;SDS011;33069;51.970;5.892;2023-08-30T01:09:15;18.15;;;14.93;;
47337;SDS011;33069;51.970;5.892;2023-08-30T01:12:13;16.13;;;13.50;;
47337;SDS011;33069;51.970;5.892;2023-08-30T01:15:09;18.50;;;14.57;;
47337;SDS011;33069;51.970;5.892;2023-08-30T01:17:58;17.25;;;15.05;;
47337;SDS011;33069;51.970;5.892;2023-08-30T01:20:45;18.40;;;14.10;;
47337;SDS011;33069;51.970;5.892;2023-08-30T01:23:49;18.13;;;15.10;;
47337;SDS011;33069;51.970;5.892;2023-08-30T01:26:48;19.80;;;15.80;;
47337;SDS011;33069;51.970;5.892;2023-08-30T01:29:51;15.75;;;13.68;;
47337;SDS011;33069;51.970;5.892;2023-08-30T01:32:39;24.38;;;15.50;;
47337;SDS011;33069;51.970;5.892;2023-08-30T01:35:27;19.38;;;14.38;;
47337;SDS011;33069;51.970;5.892;2023-08-30T01:38:18;18.92;;;14.45;;
47337;SDS011;33069;51.970;5.892;2023-08-30T01:41:04;20.85;;;15.02;;
47337;SDS011;33069;51.970;5.892;2023-08-30T01:43:50;18.52;;;13.77;;
47337;SDS011;33069;51.970;5.892;2023-08-30T01:46:38;21.88;;;16.15;;
47337;SDS011;33069;51.970;5.892;2023-08-30T01:49:24;24.05;;;15.68;;
47337;SDS011;33069;51.970;5.892;2023-08-30T01:52:11;22.23;;;17.95;;
47337;SDS011;33069;51.970;5.892;2023-08-30T01:54:59;19.70;;;16.60;;
47337;SDS011;33069;51.970;5.892;2023-08-30T01:57:46;20.05;;;16.40;;
47337;SDS011;33069;51.970;5.892;2023-08-30T02:00:32;21.27;;;16.80;;
47337;SDS011;33069;51.970;5.892;2023-08-30T02:03:20;24.95;;;16.20;;
47337;SDS011;33069;51.970;5.892;2023-08-30T02:09:04;18.23;;;15.30;;
47337;SDS011;33069;51.970;5.892;2023-08-30T02:12:00;18.45;;;15.35;;
47337;SDS011;33069;51.970;5.892;2023-08-30T02:14:52;19.30;;;15.75;;
47337;SDS011;33069;51.970;5.892;2023-08-30T02:17:40;22.35;;;17.02;;
47337;SDS011;33069;51.970;5.892;2023-08-30T02:20:26;22.70;;;17.65;;
47337;SDS011;33069;51.970;5.892;2023-08-30T02:23:12;20.35;;;15.57;;
47337;SDS011;33069;51.970;5.892;2023-08-30T02:25:58;20.77;;;16.02;;
47337;SDS011;33069;51.970;5.892;2023-08-30T02:28:44;19.05;;;15.82;;
47337;SDS011;33069;51.970;5.892;2023-08-30T02:31:30;21.88;;;15.00;;
47337;SDS011;33069;51.970;5.892;2023-08-30T02:34:16;19.23;;;14.13;;
47337;SDS011;33069;51.970;5.892;2023-08-30T02:37:02;20.67;;;16.05;;
47337;SDS011;33069;51.970;5.892;2023-08-30T02:39:48;17.15;;;14.43;;
47337;SDS011;33069;51.970;5.892;2023-08-30T02:42:34;16.98;;;15.05;;
47337;SDS011;33069;51.970;5.892;2023-08-30T02:45:20;19.05;;;14.85;;
47337;SDS011;33069;51.970;5.892;2023-08-30T02:48:06;20.45;;;15.38;;
47337;SDS011;33069;51.970;5.892;2023-08-30T02:50:52;22.60;;;13.68;;
47337;SDS011;33069;51.970;5.892;2023-08-30T02:53:38;18.08;;;15.65;;
47337;SDS011;33069;51.970;5.892;2023-08-30T02:56:24;18.35;;;14.52;;
47337;SDS011;33069;51.970;5.892;2023-08-30T02:59:11;17.70;;;13.75;;
47337;SDS011;33069;51.970;5.892;2023-08-30T03:01:57;20.17;;;14.90;;
47337;SDS011;33069;51.970;5.892;2023-08-30T03:04:43;18.13;;;14.05;;
47337;SDS011;33069;51.970;5.892;2023-08-30T03:07:29;24.10;;;16.92;;
47337;SDS011;33069;51.970;5.892;2023-08-30T03:10:15;20.05;;;16.35;;
47337;SDS011;33069;51.970;5.892;2023-08-30T03:13:01;18.98;;;14.75;;
47337;SDS011;33069;51.970;5.892;2023-08-30T03:15:47;23.08;;;16.27;;
47337;SDS011;33069;51.970;5.892;2023-08-30T03:18:33;18.70;;;14.40;;
47337;SDS011;33069;51.970;5.892;2023-08-30T03:21:19;20.95;;;16.15;;
47337;SDS011;33069;51.970;5.892;2023-08-30T03:24:05;16.45;;;14.52;;
47337;SDS011;33069;51.970;5.892;2023-08-30T03:26:51;17.05;;;14.90;;
47337;SDS011;33069;51.970;5.892;2023-08-30T03:29:37;20.67;;;16.92;;
47337;SDS011;33069;51.970;5.892;2023-08-30T03:32:23;18.23;;;15.70;;
47337;SDS011;33069;51.970;5.892;2023-08-30T03:35:09;21.88;;;16.50;;
47337;SDS011;33069;51.970;5.892;2023-08-30T03:37:55;21.98;;;17.33;;
47337;SDS011;33069;51.970;5.892;2023-08-30T03:40:41;19.10;;;15.30;;
47337;SDS011;33069;51.970;5.892;2023-08-30T03:43:27;18.00;;;15.02;;
47337;SDS011;33069;51.970;5.892;2023-08-30T03:46:13;18.95;;;16.65;;
47337;SDS011;33069;51.970;5.892;2023-08-30T03:48:58;18.92;;;16.13;;
47337;SDS011;33069;51.970;5.892;2023-08-30T03:51:44;19.63;;;15.25;;
47337;SDS011;33069;51.970;5.892;2023-08-30T03:54:31;19.70;;;15.20;;
47337;SDS011;33069;51.970;5.892;2023-08-30T03:57:17;19.20;;;15.73;;
47337;SDS011;33069;51.970;5.892;2023-08-30T04:00:03;18.33;;;14.10;;
47337;SDS011;33069;51.970;5.892;2023-08-30T04:02:49;23.25;;;16.02;;
47337;SDS011;33069;51.970;5.892;2023-08-30T04:05:36;21.40;;;16.30;;
47337;SDS011;33069;51.970;5.892;2023-08-30T04:08:22;20.90;;;17.15;;
47337;SDS011;33069;51.970;5.892;2023-08-30T04:11:08;22.45;;;17.02;;
47337;SDS011;33069;51.970;5.892;2023-08-30T04:13:54;25.45;;;18.77;;
47337;SDS011;33069;51.970;5.892;2023-08-30T04:16:40;21.02;;;17.33;;
47337;SDS011;33069;51.970;5.892;2023-08-30T04:19:26;21.65;;;15.60;;
47337;SDS011;33069;51.970;5.892;2023-08-30T04:22:12;21.95;;;17.65;;
47337;SDS011;33069;51.970;5.892;2023-08-30T04:24:58;22.83;;;17.35;;
47337;SDS011;33069;51.970;5.892;2023-08-30T04:27:44;20.85;;;15.98;;
47337;SDS011;33069;51.970;5.892;2023-08-30T04:30:30;22.70;;;17.20;;
47337;SDS011;33069;51.970;5.892;2023-08-30T04:33:16;21.25;;;17.95;;
47337;SDS011;33069;51.970;5.892;2023-08-30T04:36:02;23.83;;;17.52;;
47337;SDS011;33069;51.970;5.892;2023-08-30T04:38:49;20.60;;;15.90;;
47337;SDS011;33069;51.970;5.892;2023-08-30T04:41:35;24.75;;;17.75;;
47337;SDS011;33069;51.970;5.892;2023-08-30T04:44:21;27.70;;;18.45;;
47337;SDS011;33069;51.970;5.892;2023-08-30T04:47:10;27.23;;;18.92;;
47337;SDS011;33069;51.970;5.892;2023-08-30T04:49:56;22.35;;;18.63;;
47337;SDS011;33069;51.970;5.892;2023-08-30T04:52:42;22.40;;;18.02;;
47337;SDS011;33069;51.970;5.892;2023-08-30T04:55:28;23.65;;;17.95;;
47337;SDS011;33069;51.970;5.892;2023-08-30T04:58:15;26.13;;;19.25;;
47337;SDS011;33069;51.970;5.892;2023-08-30T05:01:01;27.55;;;18.88;;
47337;SDS011;33069;51.970;5.892;2023-08-30T05:03:48;24.05;;;19.17;;
47337;SDS011;33069;51.970;5.892;2023-08-30T05:06:34;23.38;;;19.38;;
47337;SDS011;33069;51.970;5.892;2023-08-30T05:09:19;24.67;;;18.88;;
47337;SDS011;33069;51.970;5.892;2023-08-30T05:12:10;27.85;;;19.00;;
47337;SDS011;33069;51.970;5.892;2023-08-30T05:14:56;23.10;;;18.52;;
47337;SDS011;33069;51.970;5.892;2023-08-30T05:17:42;24.20;;;19.55;;
47337;SDS011;33069;51.970;5.892;2023-08-30T05:20:28;31.35;;;20.15;;
47337;SDS011;33069;51.970;5.892;2023-08-30T05:23:13;27.08;;;21.98;;
47337;SDS011;33069;51.970;5.892;2023-08-30T05:25:59;26.55;;;21.00;;
47337;SDS011;33069;51.970;5.892;2023-08-30T05:28:45;30.40;;;20.45;;
47337;SDS011;33069;51.970;5.892;2023-08-30T05:31:31;28.17;;;22.15;;
47337;SDS011;33069;51.970;5.892;2023-08-30T05:34:17;25.00;;;19.27;;
47337;SDS011;33069;51.970;5.892;2023-08-30T05:37:03;26.25;;;19.55;;
47337;SDS011;33069;51.970;5.892;2023-08-30T05:39:49;27.67;;;21.45;;
47337;SDS011;33069;51.970;5.892;2023-08-30T05:42:35;25.75;;;19.05;;
47337;SDS011;33069;51.970;5.892;2023-08-30T05:45:21;26.38;;;18.95;;
47337;SDS011;33069;51.970;5.892;2023-08-30T05:48:07;30.98;;;21.35;;
47337;SDS011;33069;51.970;5.892;2023-08-30T05:50:53;24.33;;;19.42;;
47337;SDS011;33069;51.970;5.892;2023-08-30T05:53:40;27.02;;;21.45;;
47337;SDS011;33069;51.970;5.892;2023-08-30T05:56:25;22.77;;;19.95;;
47337;SDS011;33069;51.970;5.892;2023-08-30T05:59:12;29.38;;;21.45;;
47337;SDS011;33069;51.970;5.892;2023-08-30T06:01:58;27.25;;;21.52;;
47337;SDS011;33069;51.970;5.892;2023-08-30T06:04:43;22.08;;;19.50;;
47337;SDS011;33069;51.970;5.892;2023-08-30T06:07:29;23.02;;;20.20;;
47337;SDS011;33069;51.970;5.892;2023-08-30T06:10:15;21.77;;;19.48;;
47337;SDS011;33069;51.970;5.892;2023-08-30T06:13:02;23.25;;;18.10;;
47337;SDS011;33069;51.970;5.892;2023-08-30T06:15:51;23.75;;;20.08;;
47337;SDS011;33069;51.970;5.892;2023-08-30T06:18:37;21.92;;;19.70;;
47337;SDS011;33069;51.970;5.892;2023-08-30T06:21:23;25.52;;;19.65;;
47337;SDS011;33069;51.970;5.892;2023-08-30T06:24:09;22.85;;;20.48;;
47337;SDS011;33069;51.970;5.892;2023-08-30T06:26:55;24.55;;;21.95;;
47337;SDS011;33069;51.970;5.892;2023-08-30T06:29:41;23.95;;;20.92;;
47337;SDS011;33069;51.970;5.892;2023-08-30T06:32:27;24.88;;;21.80;;
47337;SDS011;33069;51.970;5.892;2023-08-30T06:35:13;25.83;;;23.13;;
47337;SDS011;33069;51.970;5.892;2023-08-30T06:37:59;28.45;;;22.40;;
47337;SDS011;33069;51.970;5.892;2023-08-30T06:40:45;26.08;;;21.42;;
47337;SDS011;33069;51.970;5.892;2023-08-30T06:43:32;26.17;;;23.05;;
47337;SDS011;33069;51.970;5.892;2023-08-30T06:46:17;25.20;;;22.73;;
47337;SDS011;33069;51.970;5.892;2023-08-30T06:49:04;25.88;;;23.17;;
47337;SDS011;33069;51.970;5.892;2023-08-30T06:51:51;30.95;;;22.17;;
47337;SDS011;33069;51.970;5.892;2023-08-30T06:54:37;25.05;;;22.48;;
47337;SDS011;33069;51.970;5.892;2023-08-30T06:57:23;27.02;;;24.13;;
47337;SDS011;33069;51.970;5.892;2023-08-30T07:00:09;25.30;;;22.58;;
47337;SDS011;33069;51.970;5.892;2023-08-30T07:02:55;29.83;;;24.27;;
47337;SDS011;33069;51.970;5.892;2023-08-30T07:05:42;24.75;;;22.17;;
47337;SDS011;33069;51.970;5.892;2023-08-30T07:08:29;23.73;;;21.35;;
47337;SDS011;33069;51.970;5.892;2023-08-30T07:11:14;26.52;;;23.52;;
47337;SDS011;33069;51.970;5.892;2023-08-30T07:14:01;27.55;;;24.52;;
47337;SDS011;33069;51.970;5.892;2023-08-30T07:16:47;25.60;;;22.33;;
47337;SDS011;33069;51.970;5.892;2023-08-30T07:19:34;23.98;;;21.45;;
47337;SDS011;33069;51.970;5.892;2023-08-30T07:22:20;31.83;;;24.38;;
47337;SDS011;33069;51.970;5.892;2023-08-30T07:25:07;26.02;;;23.25;;
47337;SDS011;33069;51.970;5.892;2023-08-30T07:27:55;26.25;;;23.50;;
47337;SDS011;33069;51.970;5.892;2023-08-30T07:30:41;27.60;;;24.65;;
47337;SDS011;33069;51.970;5.892;2023-08-30T07:33:27;25.02;;;22.05;;
47337;SDS011;33069;51.970;5.892;2023-08-30T07:36:13;28.75;;;23.95;;
47337;SDS011;33069;51.970;5.892;2023-08-30T07:38:59;28.50;;;24.85;;
47337;SDS011;33069;51.970;5.892;2023-08-30T07:41:45;32.58;;;24.63;;
47337;SDS011;33069;51.970;5.892;2023-08-30T07:44:31;31.83;;;24.92;;
47337;SDS011;33069;51.970;5.892;2023-08-30T07:47:17;34.28;;;26.45;;
47337;SDS011;33069;51.970;5.892;2023-08-30T07:50:04;32.08;;;23.92;;
47337;SDS011;33069;51.970;5.892;2023-08-30T07:52:51;42.85;;;27.05;;
47337;SDS011;33069;51.970;5.892;2023-08-30T07:55:37;33.55;;;23.80;;
47337;SDS011;33069;51.970;5.892;2023-08-30T07:58:23;34.03;;;24.48;;
47337;SDS011;33069;51.970;5.892;2023-08-30T08:01:09;30.13;;;22.02;;
47337;SDS011;33069;51.970;5.892;2023-08-30T08:03:55;33.78;;;22.30;;
47337;SDS011;33069;51.970;5.892;2023-08-30T08:06:41;33.97;;;23.80;;
47337;SDS011;33069;51.970;5.892;2023-08-30T08:09:27;29.58;;;22.35;;
47337;SDS011;33069;51.970;5.892;2023-08-30T08:12:13;41.33;;;26.90;;
47337;SDS011;33069;51.970;5.892;2023-08-30T08:14:59;30.85;;;22.55;;
47337;SDS011;33069;51.970;5.892;2023-08-30T08:17:45;32.28;;;20.77;;
47337;SDS011;33069;51.970;5.892;2023-08-30T08:20:32;30.48;;;21.98;;
47337;SDS011;33069;51.970;5.892;2023-08-30T08:23:18;34.00;;;24.55;;
47337;SDS011;33069;51.970;5.892;2023-08-30T08:26:04;27.38;;;19.02;;
47337;SDS011;33069;51.970;5.892;2023-08-30T08:28:50;32.47;;;22.77;;
47337;SDS011;33069;51.970;5.892;2023-08-30T08:31:36;25.52;;;20.38;;
47337;SDS011;33069;51.970;5.892;2023-08-30T08:34:22;27.10;;;19.92;;
47337;SDS011;33069;51.970;5.892;2023-08-30T08:37:08;22.65;;;17.67;;
47337;SDS011;33069;51.970;5.892;2023-08-30T08:39:54;29.85;;;20.98;;
47337;SDS011;33069;51.970;5.892;2023-08-30T08:42:40;25.92;;;20.13;;
47337;SDS011;33069;51.970;5.892;2023-08-30T08:45:28;27.55;;;20.55;;
47337;SDS011;33069;51.970;5.892;2023-08-30T08:48:14;28.73;;;22.17;;
47337;SDS011;33069;51.970;5.892;2023-08-30T08:51:00;29.38;;;22.33;;
47337;SDS011;33069;51.970;5.892;2023-08-30T08:53:47;30.73;;;22.20;;
47337;SDS011;33069;51.970;5.892;2023-08-30T08:56:33;27.23;;;21.42;;
47337;SDS011;33069;51.970;5.892;2023-08-30T08:59:19;33.88;;;23.15;;
47337;SDS011;33069;51.970;5.892;2023-08-30T09:02:06;39.45;;;26.23;;
47337;SDS011;33069;51.970;5.892;2023-08-30T09:04:54;33.38;;;23.95;;
47337;SDS011;33069;51.970;5.892;2023-08-30T09:07:40;31.75;;;22.70;;
47337;SDS011;33069;51.970;5.892;2023-08-30T09:10:28;26.38;;;21.48;;
47337;SDS011;33069;51.970;5.892;2023-08-30T09:13:14;41.63;;;26.92;;
47337;SDS011;33069;51.970;5.892;2023-08-30T09:16:00;31.65;;;22.10;;
47337;SDS011;33069;51.970;5.892;2023-08-30T09:18:56;33.97;;;26.25;;
47337;SDS011;33069;51.970;5.892;2023-08-30T09:21:50;28.50;;;22.73;;
47337;SDS011;33069;51.970;5.892;2023-08-30T09:24:40;29.65;;;22.15;;
47337;SDS011;33069;51.970;5.892;2023-08-30T09:27:33;30.42;;;22.73;;
47337;SDS011;33069;51.970;5.892;2023-08-30T09:30:22;24.98;;;20.83;;
47337;SDS011;33069;51.970;5.892;2023-08-30T09:33:08;27.98;;;21.40;;
47337;SDS011;33069;51.970;5.892;2023-08-30T09:35:54;26.08;;;20.58;;
47337;SDS011;33069;51.970;5.892;2023-08-30T09:38:40;25.25;;;20.05;;
47337;SDS011;33069;51.970;5.892;2023-08-30T09:41:33;22.55;;;19.30;;
47337;SDS011;33069;51.970;5.892;2023-08-30T09:44:19;22.63;;;18.80;;
47337;SDS011;33069;51.970;5.892;2023-08-30T09:47:06;21.73;;;17.92;;
47337;SDS011;33069;51.970;5.892;2023-08-30T09:49:54;31.58;;;19.17;;
47337;SDS011;33069;51.970;5.892;2023-08-30T09:52:41;26.80;;;20.02;;
47337;SDS011;33069;51.970;5.892;2023-08-30T09:55:27;19.20;;;17.10;;
47337;SDS011;33069;51.970;5.892;2023-08-30T09:58:13;22.42;;;18.20;;
47337;SDS011;33069;51.970;5.892;2023-08-30T10:00:59;22.15;;;17.35;;
47337;SDS011;33069;51.970;5.892;2023-08-30T10:03:48;18.45;;;16.52;;
47337;SDS011;33069;51.970;5.892;2023-08-30T10:06:34;17.48;;;15.32;;
47337;SDS011;33069;51.970;5.892;2023-08-30T10:09:24;18.17;;;16.27;;
47337;SDS011;33069;51.970;5.892;2023-08-30T10:12:11;21.80;;;16.38;;
47337;SDS011;33069;51.970;5.892;2023-08-30T10:14:57;19.38;;;15.68;;
47337;SDS011;33069;51.970;5.892;2023-08-30T10:17:44;20.63;;;15.50;;
47337;SDS011;33069;51.970;5.892;2023-08-30T10:20:31;21.60;;;19.38;;
47337;SDS011;33069;51.970;5.892;2023-08-30T10:23:17;19.77;;;17.23;;
47337;SDS011;33069;51.970;5.892;2023-08-30T10:26:04;19.48;;;16.60;;
47337;SDS011;33069;51.970;5.892;2023-08-30T10:28:52;19.77;;;17.05;;
47337;SDS011;33069;51.970;5.892;2023-08-30T10:31:39;18.20;;;16.30;;
47337;SDS011;33069;51.970;5.892;2023-08-30T10:34:30;17.60;;;15.65;;
47337;SDS011;33069;51.970;5.892;2023-08-30T10:37:26;18.75;;;16.75;;
47337;SDS011;33069;51.970;5.892;2023-08-30T10:40:12;18.25;;;16.45;;
47337;SDS011;33069;51.970;5.892;2023-08-30T10:42:59;18.65;;;16.45;;
47337;SDS011;33069;51.970;5.892;2023-08-30T10:45:57;17.88;;;16.17;;
47337;SDS011;33069;51.970;5.892;2023-08-30T10:48:47;17.85;;;16.13;;
47337;SDS011;33069;51.970;5.892;2023-08-30T10:51:38;19.95;;;17.30;;
47337;SDS011;33069;51.970;5.892;2023-08-30T10:54:25;20.02;;;18.02;;
47337;SDS011;33069;51.970;5.892;2023-08-30T10:57:24;20.98;;;18.70;;
47337;SDS011;33069;51.970;5.892;2023-08-30T11:03:03;22.35;;;20.00;;
47337;SDS011;33069;51.970;5.892;2023-08-30T11:05:49;20.90;;;18.65;;
47337;SDS011;33069;51.970;5.892;2023-08-30T11:08:35;18.98;;;17.00;;
47337;SDS011;33069;51.970;5.892;2023-08-30T11:11:21;20.15;;;18.17;;
47337;SDS011;33069;51.970;5.892;2023-08-30T11:14:10;19.10;;;16.83;;
47337;SDS011;33069;51.970;5.892;2023-08-30T11:16:55;19.75;;;18.05;;
47337;SDS011;33069;51.970;5.892;2023-08-30T11:19:41;22.83;;;20.75;;
47337;SDS011;33069;51.970;5.892;2023-08-30T11:22:28;21.88;;;19.88;;
47337;SDS011;33069;51.970;5.892;2023-08-30T11:25:14;24.20;;;21.77;;
47337;SDS011;33069;51.970;5.892;2023-08-30T11:28:04;23.08;;;20.98;;
47337;SDS011;33069;51.970;5.892;2023-08-30T11:30:54;21.10;;;19.05;;
47337;SDS011;33069;51.970;5.892;2023-08-30T11:33:40;21.55;;;19.45;;
47337;SDS011;33069;51.970;5.892;2023-08-30T11:36:27;22.83;;;20.60;;
47337;SDS011;33069;51.970;5.892;2023-08-30T11:39:14;16.67;;;15.18;;
47337;SDS011;33069;51.970;5.892;2023-08-30T11:42:04;17.48;;;15.73;;
47337;SDS011;33069;51.970;5.892;2023-08-30T11:44:51;15.95;;;14.65;;
47337;SDS011;33069;51.970;5.892;2023-08-30T11:47:37;13.60;;;12.50;;
47337;SDS011;33069;51.970;5.892;2023-08-30T11:50:23;13.57;;;12.50;;
47337;SDS011;33069;51.970;5.892;2023-08-30T11:53:10;13.63;;;12.50;;
47337;SDS011;33069;51.970;5.892;2023-08-30T11:55:56;12.98;;;11.73;;
47337;SDS011;33069;51.970;5.892;2023-08-30T11:58:42;15.45;;;14.18;;
47337;SDS011;33069;51.970;5.892;2023-08-30T12:01:29;13.68;;;11.85;;
47337;SDS011;33069;51.970;5.892;2023-08-30T12:04:15;12.40;;;11.10;;
47337;SDS011;33069;51.970;5.892;2023-08-30T12:07:03;14.20;;;12.90;;
47337;SDS011;33069;51.970;5.892;2023-08-30T12:09:50;13.80;;;12.43;;
47337;SDS011;33069;51.970;5.892;2023-08-30T12:12:36;12.00;;;10.80;;
47337;SDS011;33069;51.970;5.892;2023-08-30T12:15:22;14.75;;;13.55;;
47337;SDS011;33069;51.970;5.892;2023-08-30T12:18:11;12.45;;;11.45;;
47337;SDS011;33069;51.970;5.892;2023-08-30T12:20:57;14.18;;;13.07;;
47337;SDS011;33069;51.970;5.892;2023-08-30T12:23:48;11.25;;;9.57;;
47337;SDS011;33069;51.970;5.892;2023-08-30T12:26:44;12.30;;;11.15;;
47337;SDS011;33069;51.970;5.892;2023-08-30T12:29:30;14.45;;;10.32;;
47337;SDS011;33069;51.970;5.892;2023-08-30T12:32:16;11.43;;;9.77;;
47337;SDS011;33069;51.970;5.892;2023-08-30T12:35:02;13.02;;;10.45;;
47337;SDS011;33069;51.970;5.892;2023-08-30T12:37:48;11.20;;;10.10;;
47337;SDS011;33069;51.970;5.892;2023-08-30T12:40:35;11.25;;;10.18;;
47337;SDS011;33069;51.970;5.892;2023-08-30T12:43:21;12.38;;;10.20;;
47337;SDS011;33069;51.970;5.892;2023-08-30T12:46:08;11.73;;;9.73;;
47337;SDS011;33069;51.970;5.892;2023-08-30T12:48:54;11.30;;;8.85;;
47337;SDS011;33069;51.970;5.892;2023-08-30T12:51:40;12.05;;;9.02;;
47337;SDS011;33069;51.970;5.892;2023-08-30T12:54:26;13.23;;;9.77;;
47337;SDS011;33069;51.970;5.892;2023-08-30T12:57:12;13.70;;;10.63;;
47337;SDS011;33069;51.970;5.892;2023-08-30T12:59:58;12.30;;;10.65;;
47337;SDS011;33069;51.970;5.892;2023-08-30T13:02:44;14.13;;;10.70;;
47337;SDS011;33069;51.970;5.892;2023-08-30T13:05:30;11.43;;;10.32;;
47337;SDS011;33069;51.970;5.892;2023-08-30T13:08:17;10.95;;;9.85;;
47337;SDS011;33069;51.970;5.892;2023-08-30T13:11:03;10.27;;;9.23;;
47337;SDS011;33069;51.970;5.892;2023-08-30T13:13:49;13.95;;;9.77;;
47337;SDS011;33069;51.970;5.892;2023-08-30T13:16:35;14.48;;;10.60;;
47337;SDS011;33069;51.970;5.892;2023-08-30T13:19:21;18.70;;;9.45;;
47337;SDS011;33069;51.970;5.892;2023-08-30T13:22:07;14.20;;;9.45;;
47337;SDS011;33069;51.970;5.892;2023-08-30T13:24:55;16.88;;;12.07;;
47337;SDS011;33069;51.970;5.892;2023-08-30T13:27:41;14.38;;;11.32;;
47337;SDS011;33069;51.970;5.892;2023-08-30T13:30:27;16.10;;;10.82;;
47337;SDS011;33069;51.970;5.892;2023-08-30T13:33:13;14.65;;;12.13;;
47337;SDS011;33069;51.970;5.892;2023-08-30T13:35:59;16.55;;;12.65;;
47337;SDS011;33069;51.970;5.892;2023-08-30T13:38:45;13.30;;;11.38;;
47337;SDS011;33069;51.970;5.892;2023-08-30T13:41:31;12.98;;;11.85;;
47337;SDS011;33069;51.970;5.892;2023-08-30T13:44:17;14.38;;;12.00;;
47337;SDS011;33069;51.970;5.892;2023-08-30T13:47:04;13.63;;;11.13;;
47337;SDS011;33069;51.970;5.892;2023-08-30T13:49:50;14.98;;;12.07;;
47337;SDS011;33069;51.970;5.892;2023-08-30T13:52:36;16.88;;;11.32;;
47337;SDS011;33069;51.970;5.892;2023-08-30T13:55:22;13.88;;;12.18;;
47337;SDS011;33069;51.970;5.892;2023-08-30T13:58:08;12.88;;;10.73;;
47337;SDS011;33069;51.970;5.892;2023-08-30T14:00:54;14.20;;;11.10;;
47337;SDS011;33069;51.970;5.892;2023-08-30T14:03:40;13.60;;;11.23;;
47337;SDS011;33069;51.970;5.892;2023-08-30T14:06:26;16.77;;;13.43;;
47337;SDS011;33069;51.970;5.892;2023-08-30T14:09:12;14.93;;;11.90;;
47337;SDS011;33069;51.970;5.892;2023-08-30T14:11:59;17.60;;;14.60;;
47337;SDS011;33069;51.970;5.892;2023-08-30T14:14:45;16.40;;;11.43;;
47337;SDS011;33069;51.970;5.892;2023-08-30T14:17:31;21.20;;;19.38;;
47337;SDS011;33069;51.970;5.892;2023-08-30T14:20:16;14.45;;;12.95;;
47337;SDS011;33069;51.970;5.892;2023-08-30T14:23:02;13.73;;;11.90;;
47337;SDS011;33069;51.970;5.892;2023-08-30T14:25:58;12.63;;;11.43;;
47337;SDS011;33069;51.970;5.892;2023-08-30T14:28:45;13.05;;;11.85;;
47337;SDS011;33069;51.970;5.892;2023-08-30T14:31:31;15.20;;;12.20;;
47337;SDS011;33069;51.970;5.892;2023-08-30T14:34:17;13.20;;;12.00;;
47337;SDS011;33069;51.970;5.892;2023-08-30T14:37:05;16.15;;;11.35;;
47337;SDS011;33069;51.970;5.892;2023-08-30T14:39:52;18.42;;;11.70;;
47337;SDS011;33069;51.970;5.892;2023-08-30T14:42:39;13.50;;;12.30;;
47337;SDS011;33069;51.970;5.892;2023-08-30T14:45:25;12.52;;;11.27;;
47337;SDS011;33069;51.970;5.892;2023-08-30T14:48:11;13.88;;;11.90;;
47337;SDS011;33069;51.970;5.892;2023-08-30T14:51:00;12.18;;;11.20;;
47337;SDS011;33069;51.970;5.892;2023-08-30T14:53:47;13.73;;;11.95;;
47337;SDS011;33069;51.970;5.892;2023-08-30T14:56:33;17.17;;;13.88;;
47337;SDS011;33069;51.970;5.892;2023-08-30T14:59:19;14.35;;;13.23;;
47337;SDS011;33069;51.970;5.892;2023-08-30T15:02:05;13.82;;;12.70;;
47337;SDS011;33069;51.970;5.892;2023-08-30T15:04:52;13.10;;;11.80;;
47337;SDS011;33069;51.970;5.892;2023-08-30T15:07:38;17.05;;;15.55;;
47337;SDS011;33069;51.970;5.892;2023-08-30T15:10:24;20.35;;;18.75;;
47337;SDS011;33069;51.970;5.892;2023-08-30T15:13:10;19.20;;;16.35;;
47337;SDS011;33069;51.970;5.892;2023-08-30T15:15:56;13.00;;;11.48;;
47337;SDS011;33069;51.970;5.892;2023-08-30T15:18:42;15.15;;;13.73;;
47337;SDS011;33069;51.970;5.892;2023-08-30T15:21:28;13.82;;;12.43;;
47337;SDS011;33069;51.970;5.892;2023-08-30T15:24:14;11.68;;;10.77;;
47337;SDS011;33069;51.970;5.892;2023-08-30T15:27:01;11.70;;;10.40;;
47337;SDS011;33069;51.970;5.892;2023-08-30T15:29:47;13.60;;;12.30;;
47337;SDS011;33069;51.970;5.892;2023-08-30T15:32:39;13.25;;;12.15;;
47337;SDS011;33069;51.970;5.892;2023-08-30T15:35:26;11.65;;;10.68;;
47337;SDS011;33069;51.970;5.892;2023-08-30T15:38:12;18.90;;;17.52;;
47337;SDS011;33069;51.970;5.892;2023-08-30T15:40:59;11.00;;;10.20;;
47337;SDS011;33069;51.970;5.892;2023-08-30T15:43:45;12.80;;;11.90;;
47337;SDS011;33069;51.970;5.892;2023-08-30T15:46:31;13.23;;;12.23;;
47337;SDS011;33069;51.970;5.892;2023-08-30T15:49:17;13.65;;;12.45;;
47337;SDS011;33069;51.970;5.892;2023-08-30T15:52:03;14.20;;;13.10;;
47337;SDS011;33069;51.970;5.892;2023-08-30T15:54:49;13.15;;;12.00;;
47337;SDS011;33069;51.970;5.892;2023-08-30T15:57:35;14.55;;;12.95;;
47337;SDS011;33069;51.970;5.892;2023-08-30T16:00:21;15.95;;;14.88;;
47337;SDS011;33069;51.970;5.892;2023-08-30T16:03:09;13.23;;;11.90;;
47337;SDS011;33069;51.970;5.892;2023-08-30T16:05:55;11.93;;;11.00;;
47337;SDS011;33069;51.970;5.892;2023-08-30T16:08:41;11.48;;;10.35;;
47337;SDS011;33069;51.970;5.892;2023-08-30T16:11:27;11.20;;;10.10;;
47337;SDS011;33069;51.970;5.892;2023-08-30T16:14:13;11.23;;;9.93;;
47337;SDS011;33069;51.970;5.892;2023-08-30T16:16:59;12.05;;;10.23;;
47337;SDS011;33069;51.970;5.892;2023-08-30T16:19:45;13.65;;;10.85;;
47337;SDS011;33069;51.970;5.892;2023-08-30T16:22:31;15.38;;;9.65;;